createdAt,value
2022-12-03T00:00:41.581Z,15.10
2022-12-03T00:01:41.561Z,17.90
2022-12-03T00:02:41.740Z,16.80
2022-12-03T00:03:41.636Z,16.00
2022-12-03T00:04:41.540Z,15.20
2022-12-03T00:05:48.231Z,16.30
2022-12-03T00:06:42.512Z,16.10
2022-12-03T00:07:41.630Z,16.60
2022-12-03T00:08:41.504Z,14.90
2022-12-03T00:09:41.481Z,16.60
2022-12-03T00:10:41.634Z,15.60
2022-12-03T00:11:41.463Z,16.10
2022-12-03T00:12:41.442Z,16.00
2022-12-03T00:13:41.445Z,15.50
2022-12-03T00:14:44.614Z,15.80
2022-12-03T00:15:41.478Z,15.90
2022-12-03T00:16:41.414Z,14.80
2022-12-03T00:17:41.406Z,15.10
2022-12-03T00:18:41.385Z,15.90
2022-12-03T00:19:41.425Z,15.30
2022-12-03T00:20:41.372Z,15.90
2022-12-03T00:21:41.353Z,16.30
2022-12-03T00:22:41.372Z,15.40
2022-12-03T00:23:42.470Z,16.70
2022-12-03T00:24:41.318Z,14.50
2022-12-03T00:25:41.345Z,14.20
2022-12-03T00:26:41.303Z,13.80
2022-12-03T00:27:41.295Z,14.40
2022-12-03T00:28:41.282Z,14.90
2022-12-03T00:29:41.271Z,13.80
2022-12-03T00:30:41.307Z,14.90
2022-12-03T00:31:41.354Z,15.40
2022-12-03T00:32:41.238Z,14.50
2022-12-03T00:33:41.225Z,13.80
2022-12-03T00:34:41.217Z,12.50
2022-12-03T00:35:41.224Z,15.50
2022-12-03T00:36:41.195Z,12.90
2022-12-03T00:37:41.196Z,15.60
2022-12-03T00:38:41.174Z,15.30
2022-12-03T00:39:41.164Z,15.10
2022-12-03T00:40:41.193Z,14.10
2022-12-03T00:41:41.156Z,14.10
2022-12-03T00:42:41.134Z,15.60
2022-12-03T00:43:41.214Z,15.80
2022-12-03T00:44:41.113Z,14.60
2022-12-03T00:45:41.127Z,14.50
2022-12-03T00:46:41.124Z,14.00
2022-12-03T00:47:41.082Z,13.70
2022-12-03T00:48:41.064Z,14.30
2022-12-03T00:49:41.055Z,14.30
2022-12-03T00:50:41.056Z,15.00
2022-12-03T00:51:41.038Z,13.60
2022-12-03T00:52:41.033Z,15.00
2022-12-03T00:53:41.019Z,13.80
2022-12-03T00:54:41.004Z,13.40
2022-12-03T00:55:41.006Z,12.40
2022-12-03T00:56:41.037Z,13.70
2022-12-03T00:57:40.974Z,14.00
2022-12-03T00:58:40.957Z,14.70
2022-12-03T00:59:40.955Z,14.30
2022-12-03T01:00:40.954Z,14.20
2022-12-03T01:01:40.989Z,14.90
2022-12-03T01:02:40.925Z,13.60
2022-12-03T01:03:40.936Z,13.10
2022-12-03T01:04:41.074Z,13.10
2022-12-03T01:05:40.908Z,13.80
2022-12-03T01:06:40.873Z,13.90
2022-12-03T01:07:40.918Z,13.30
2022-12-03T01:08:40.859Z,14.30
2022-12-03T01:09:40.855Z,15.50
2022-12-03T01:10:40.850Z,14.30
2022-12-03T01:11:40.828Z,13.60
2022-12-03T01:12:40.863Z,13.50
2022-12-03T01:13:40.826Z,14.90
2022-12-03T01:14:40.797Z,12.20
2022-12-03T01:15:40.866Z,13.50
2022-12-03T01:16:40.767Z,14.60
2022-12-03T01:17:40.766Z,14.50
2022-12-03T01:18:40.747Z,12.00
2022-12-03T01:19:46.515Z,13.80
2022-12-03T01:20:41.805Z,12.80
2022-12-03T01:21:40.724Z,13.60
2022-12-03T01:22:40.705Z,12.70
2022-12-03T01:23:40.699Z,14.20
2022-12-03T01:24:40.676Z,12.90
2022-12-03T01:25:40.711Z,12.90
2022-12-03T01:26:40.658Z,12.60
2022-12-03T01:27:40.670Z,14.40
2022-12-03T01:28:40.657Z,13.20
2022-12-03T01:29:40.645Z,13.30
2022-12-03T01:30:40.639Z,14.10
2022-12-03T01:31:40.678Z,14.50
2022-12-03T01:32:40.610Z,12.80
2022-12-03T01:33:40.605Z,14.40
2022-12-03T01:34:40.579Z,14.60
2022-12-03T01:35:40.583Z,13.30
2022-12-03T01:36:40.563Z,15.30
2022-12-03T01:37:40.548Z,15.20
2022-12-03T01:38:40.540Z,13.30
2022-12-03T01:39:40.528Z,14.30
2022-12-03T01:40:40.529Z,14.60
2022-12-03T01:41:40.509Z,13.60
2022-12-03T01:42:40.487Z,14.10
2022-12-03T01:43:40.489Z,12.70
2022-12-03T01:44:40.468Z,15.50
2022-12-03T01:45:40.479Z,13.10
2022-12-03T01:46:40.495Z,13.90
2022-12-03T01:47:40.441Z,13.10
2022-12-03T01:48:40.437Z,12.20
2022-12-03T01:49:40.443Z,13.10
2022-12-03T01:50:40.440Z,14.80
2022-12-03T01:51:40.401Z,13.60
2022-12-03T01:52:40.383Z,13.80
2022-12-03T01:53:40.379Z,13.40
2022-12-03T01:54:40.379Z,13.30
2022-12-03T01:55:40.369Z,15.50
2022-12-03T01:56:40.339Z,13.90
2022-12-03T01:57:40.349Z,13.30
2022-12-03T01:58:40.330Z,14.10
2022-12-03T01:59:40.317Z,14.00
2022-12-03T02:00:40.320Z,12.60
2022-12-03T02:01:40.330Z,14.30
2022-12-03T02:02:40.283Z,13.40
2022-12-03T02:03:40.340Z,15.00
2022-12-03T02:04:40.257Z,15.00
2022-12-03T02:05:40.262Z,15.80
2022-12-03T02:06:40.269Z,12.90
2022-12-03T02:07:40.283Z,12.90
2022-12-03T02:08:40.233Z,15.10
2022-12-03T02:09:40.208Z,13.00
2022-12-03T02:10:40.191Z,13.20
2022-12-03T02:11:40.211Z,15.60
2022-12-03T02:12:40.170Z,15.00
2022-12-03T02:13:40.175Z,12.70
2022-12-03T02:14:40.152Z,13.70
2022-12-03T02:15:40.189Z,14.50
2022-12-03T02:16:40.194Z,13.90
2022-12-03T02:17:40.130Z,14.20
2022-12-03T02:18:40.110Z,13.00
2022-12-03T02:19:40.109Z,14.60
2022-12-03T02:20:40.100Z,14.80
2022-12-03T02:21:40.109Z,13.30
2022-12-03T02:22:40.077Z,15.00
2022-12-03T02:23:40.063Z,14.10
2022-12-03T02:24:40.044Z,13.80
2022-12-03T02:25:40.038Z,14.50
2022-12-03T02:26:40.052Z,14.90
2022-12-03T02:27:40.025Z,13.50
2022-12-03T02:28:40.011Z,14.00
2022-12-03T02:29:40.001Z,14.30
2022-12-03T02:30:39.992Z,15.00
2022-12-03T02:31:40.078Z,13.90
2022-12-03T02:32:39.981Z,14.00
2022-12-03T02:33:39.951Z,14.60
2022-12-03T02:34:39.981Z,14.30
2022-12-03T02:35:39.942Z,14.90
2022-12-03T02:36:39.930Z,15.50
2022-12-03T02:37:39.913Z,14.50
2022-12-03T02:38:39.903Z,14.40
2022-12-03T02:39:39.903Z,14.50
2022-12-03T02:40:39.880Z,16.60
2022-12-03T02:41:39.892Z,16.00
2022-12-03T02:42:39.856Z,15.20
2022-12-03T02:43:39.859Z,15.30
2022-12-03T02:44:39.832Z,15.10
2022-12-03T02:45:39.861Z,15.20
2022-12-03T02:46:39.898Z,14.00
2022-12-03T02:47:39.813Z,15.50
2022-12-03T02:48:39.800Z,15.30
2022-12-03T02:49:40.524Z,16.30
2022-12-03T02:50:39.784Z,16.00
2022-12-03T02:51:39.782Z,15.20
2022-12-03T02:52:39.764Z,16.40
2022-12-03T02:53:39.743Z,16.30
2022-12-03T02:54:39.761Z,17.00
2022-12-03T02:55:39.728Z,15.90
2022-12-03T02:56:40.027Z,16.70
2022-12-03T02:57:39.706Z,17.00
2022-12-03T02:58:39.708Z,16.90
2022-12-03T02:59:39.681Z,17.00
2022-12-03T03:00:39.744Z,16.70
2022-12-03T03:01:39.774Z,16.10
2022-12-03T03:02:39.713Z,15.60
2022-12-03T03:03:39.641Z,16.90
2022-12-03T03:04:39.631Z,15.90
2022-12-03T03:05:39.625Z,16.20
2022-12-03T03:06:39.623Z,16.50
2022-12-03T03:07:39.713Z,16.80
2022-12-03T03:08:39.583Z,18.00
2022-12-03T03:09:39.593Z,15.70
2022-12-03T03:10:39.556Z,16.90
2022-12-03T03:11:39.724Z,17.80
2022-12-03T03:12:39.622Z,17.00
2022-12-03T03:13:39.564Z,20.30
2022-12-03T03:14:39.591Z,16.60
2022-12-03T03:15:39.523Z,17.90
2022-12-03T03:16:39.576Z,17.80
2022-12-03T03:17:39.497Z,16.30
2022-12-03T03:18:39.474Z,17.10
2022-12-03T03:19:39.464Z,18.10
2022-12-03T03:20:39.456Z,18.70
2022-12-03T03:21:39.454Z,18.60
2022-12-03T03:22:39.434Z,15.90
2022-12-03T03:23:39.425Z,17.90
2022-12-03T03:24:39.404Z,18.20
2022-12-03T03:25:39.407Z,17.90
2022-12-03T03:26:39.417Z,19.10
2022-12-03T03:27:39.382Z,18.10
2022-12-03T03:28:39.379Z,17.90
2022-12-03T03:29:39.365Z,19.20
2022-12-03T03:30:39.357Z,18.40
2022-12-03T03:31:39.465Z,17.90
2022-12-03T03:32:39.328Z,19.90
2022-12-03T03:33:39.336Z,18.90
2022-12-03T03:34:39.307Z,19.80
2022-12-03T03:35:39.327Z,17.60
2022-12-03T03:36:39.275Z,19.00
2022-12-03T03:37:39.310Z,18.70
2022-12-03T03:38:39.275Z,20.40
2022-12-03T03:39:39.256Z,21.40
2022-12-03T03:40:39.246Z,18.40
2022-12-03T03:41:39.245Z,19.80
2022-12-03T03:42:39.228Z,21.50
2022-12-03T03:43:39.225Z,19.00
2022-12-03T03:44:39.214Z,20.50
2022-12-03T03:45:39.212Z,19.70
2022-12-03T03:46:39.178Z,19.80
2022-12-03T03:47:39.192Z,19.80
2022-12-03T03:48:39.156Z,21.30
2022-12-03T03:49:39.158Z,19.60
2022-12-03T03:50:39.137Z,21.20
2022-12-03T03:51:39.127Z,18.40
2022-12-03T03:52:39.140Z,20.10
2022-12-03T03:53:39.109Z,20.90
2022-12-03T03:54:39.088Z,20.10
2022-12-03T03:55:39.090Z,20.10
2022-12-03T03:56:39.077Z,20.30
2022-12-03T03:57:39.077Z,19.80
2022-12-03T03:58:39.059Z,18.60
2022-12-03T03:59:39.050Z,21.00
2022-12-03T04:00:39.062Z,22.30
2022-12-03T04:01:39.177Z,19.60
2022-12-03T04:02:39.027Z,20.00
2022-12-03T04:03:39.059Z,18.80
2022-12-03T04:04:39.088Z,21.30
2022-12-03T04:05:38.978Z,20.30
2022-12-03T04:06:39.001Z,19.50
2022-12-03T04:07:39.096Z,19.10
2022-12-03T04:08:38.957Z,18.70
2022-12-03T04:09:38.937Z,17.70
2022-12-03T04:10:38.930Z,17.90
2022-12-03T04:11:38.917Z,18.90
2022-12-03T04:12:38.929Z,20.40
2022-12-03T04:13:38.909Z,19.10
2022-12-03T04:14:38.886Z,20.90
2022-12-03T04:15:38.880Z,19.30
2022-12-03T04:16:38.889Z,19.90
2022-12-03T04:17:38.862Z,19.30
2022-12-03T04:18:38.846Z,19.90
2022-12-03T04:19:38.828Z,20.30
2022-12-03T04:20:38.823Z,20.90
2022-12-03T04:21:38.808Z,20.90
2022-12-03T04:22:38.810Z,20.30
2022-12-03T04:23:38.790Z,20.20
2022-12-03T04:24:38.779Z,21.10
2022-12-03T04:25:38.771Z,22.80
2022-12-03T04:26:38.751Z,21.10
2022-12-03T04:27:38.760Z,21.20
2022-12-03T04:28:38.738Z,19.40
2022-12-03T04:29:38.720Z,20.60
2022-12-03T04:30:38.823Z,19.90
2022-12-03T04:31:38.715Z,20.20
2022-12-03T04:32:38.700Z,23.40
2022-12-03T04:33:38.682Z,22.20
2022-12-03T04:34:38.670Z,19.80
2022-12-03T04:35:38.718Z,18.10
2022-12-03T04:36:38.651Z,20.20
2022-12-03T04:37:38.650Z,18.60
2022-12-03T04:38:38.619Z,19.00
2022-12-03T04:39:38.619Z,19.20
2022-12-03T04:40:38.609Z,18.70
2022-12-03T04:41:38.603Z,20.40
2022-12-03T04:42:38.592Z,20.40
2022-12-03T04:43:38.591Z,17.90
2022-12-03T04:44:38.571Z,19.50
2022-12-03T04:45:38.605Z,18.60
2022-12-03T04:46:38.539Z,18.20
2022-12-03T04:47:40.134Z,18.60
2022-12-03T04:48:38.521Z,20.80
2022-12-03T04:49:38.513Z,22.00
2022-12-03T04:50:38.500Z,18.60
2022-12-03T04:51:38.490Z,19.60
2022-12-03T04:52:38.490Z,18.10
2022-12-03T04:53:43.236Z,19.00
2022-12-03T04:54:39.450Z,20.00
2022-12-03T04:55:38.453Z,19.40
2022-12-03T04:56:38.433Z,22.50
2022-12-03T04:57:38.433Z,18.70
2022-12-03T04:58:38.413Z,20.70
2022-12-03T04:59:38.411Z,19.50
2022-12-03T05:00:38.391Z,20.50
2022-12-03T05:01:38.473Z,20.50
2022-12-03T05:02:38.476Z,20.80
2022-12-03T05:03:38.363Z,20.00
2022-12-03T05:04:38.362Z,20.90
2022-12-03T05:05:38.349Z,21.80
2022-12-03T05:06:38.326Z,21.80
2022-12-03T05:07:38.449Z,18.10
2022-12-03T05:08:38.311Z,20.00
2022-12-03T05:09:38.291Z,19.50
2022-12-03T05:10:38.291Z,18.90
2022-12-03T05:11:38.281Z,18.10
2022-12-03T05:12:38.273Z,20.10
2022-12-03T05:13:38.272Z,21.40
2022-12-03T05:14:38.241Z,21.80
2022-12-03T05:15:38.241Z,20.80
2022-12-03T05:16:38.252Z,19.20
2022-12-03T05:17:38.223Z,17.90
2022-12-03T05:18:38.232Z,18.90
2022-12-03T05:19:38.194Z,19.80
2022-12-03T05:20:38.175Z,19.10
2022-12-03T05:21:38.172Z,17.50
2022-12-03T05:22:38.152Z,18.20
2022-12-03T05:23:38.163Z,19.30
2022-12-03T05:24:38.133Z,20.70
2022-12-03T05:25:38.136Z,20.90
2022-12-03T05:26:38.114Z,17.40
2022-12-03T05:27:38.104Z,16.70
2022-12-03T05:28:38.111Z,17.70
2022-12-03T05:29:38.113Z,15.60
2022-12-03T05:30:38.162Z,17.00
2022-12-03T05:31:38.069Z,17.80
2022-12-03T05:32:38.053Z,17.30
2022-12-03T05:33:42.572Z,17.30
2022-12-03T05:34:39.024Z,15.80
2022-12-03T05:35:38.025Z,15.20
2022-12-03T05:36:38.011Z,17.60
2022-12-03T05:37:38.019Z,17.80
2022-12-03T05:38:38.002Z,18.30
2022-12-03T05:39:37.998Z,17.30
2022-12-03T05:40:37.963Z,16.90
2022-12-03T05:41:37.965Z,17.00
2022-12-03T05:42:37.945Z,16.80
2022-12-03T05:43:37.954Z,19.80
2022-12-03T05:44:37.924Z,16.20
2022-12-03T05:45:37.922Z,18.20
2022-12-03T05:46:37.995Z,17.40
2022-12-03T05:47:37.893Z,14.90
2022-12-03T05:48:37.883Z,16.50
2022-12-03T05:49:37.909Z,15.60
2022-12-03T05:50:37.866Z,16.80
2022-12-03T05:51:37.856Z,16.80
2022-12-03T05:52:37.836Z,15.40
2022-12-03T05:53:37.838Z,16.50
2022-12-03T05:54:37.812Z,14.00
2022-12-03T05:55:37.806Z,14.50
2022-12-03T05:56:37.837Z,14.20
2022-12-03T05:57:37.786Z,15.40
2022-12-03T05:58:37.784Z,17.30
2022-12-03T05:59:37.777Z,14.90
2022-12-03T06:00:42.098Z,13.90
2022-12-03T06:01:38.747Z,15.10
2022-12-03T06:02:37.809Z,13.20
2022-12-03T06:03:37.875Z,16.70
2022-12-03T06:04:37.713Z,15.70
2022-12-03T06:05:37.709Z,16.50
2022-12-03T06:06:37.688Z,14.30
2022-12-03T06:07:37.725Z,16.10
2022-12-03T06:08:37.685Z,13.80
2022-12-03T06:09:37.656Z,15.10
2022-12-03T06:10:37.645Z,14.40
2022-12-03T06:11:37.635Z,15.00
2022-12-03T06:12:37.632Z,14.40
2022-12-03T06:13:37.630Z,13.80
2022-12-03T06:14:37.614Z,14.50
2022-12-03T06:15:43.482Z,15.70
2022-12-03T06:16:38.651Z,14.80
2022-12-03T06:17:37.575Z,15.30
2022-12-03T06:18:37.599Z,15.60
2022-12-03T06:19:37.586Z,16.20
2022-12-03T06:20:37.560Z,14.00
2022-12-03T06:21:37.527Z,14.80
2022-12-03T06:22:37.529Z,16.00
2022-12-03T06:23:37.525Z,13.60
2022-12-03T06:24:37.498Z,14.20
2022-12-03T06:25:37.488Z,15.00
2022-12-03T06:26:37.476Z,14.10
2022-12-03T06:27:37.486Z,14.60
2022-12-03T06:28:37.497Z,14.90
2022-12-03T06:29:37.456Z,14.20
2022-12-03T06:30:37.438Z,13.10
2022-12-03T06:31:37.530Z,13.70
2022-12-03T06:32:37.417Z,13.30
2022-12-03T06:33:37.407Z,13.70
2022-12-03T06:34:37.446Z,13.90
2022-12-03T06:35:37.377Z,15.20
2022-12-03T06:36:37.367Z,14.00
2022-12-03T06:37:37.358Z,14.20
2022-12-03T06:38:37.382Z,14.70
2022-12-03T06:39:37.338Z,13.30
2022-12-03T06:40:37.347Z,13.10
2022-12-03T06:41:37.318Z,16.00
2022-12-03T06:42:37.357Z,13.80
2022-12-03T06:43:37.312Z,13.50
2022-12-03T06:44:37.372Z,14.00
2022-12-03T06:45:37.297Z,14.30
2022-12-03T06:46:37.371Z,13.60
2022-12-03T06:47:37.298Z,13.80
2022-12-03T06:48:37.245Z,14.20
2022-12-03T06:49:37.252Z,13.00
2022-12-03T06:50:37.228Z,14.30
2022-12-03T06:51:37.229Z,14.90
2022-12-03T06:52:37.219Z,13.60
2022-12-03T06:53:37.209Z,15.30
2022-12-03T06:54:37.198Z,13.80
2022-12-03T06:55:37.189Z,15.10
2022-12-03T06:56:44.693Z,13.80
2022-12-03T06:57:38.148Z,15.00
2022-12-03T06:58:37.150Z,15.40
2022-12-03T06:59:37.158Z,13.70
2022-12-03T07:00:37.138Z,13.90
2022-12-03T07:01:37.159Z,13.80
2022-12-03T07:02:37.129Z,14.30
2022-12-03T07:03:37.087Z,14.60
2022-12-03T07:04:37.778Z,13.70
2022-12-03T07:05:37.069Z,14.40
2022-12-03T07:06:37.061Z,15.10
2022-12-03T07:07:37.066Z,13.00
2022-12-03T07:08:37.050Z,15.10
2022-12-03T07:09:37.028Z,14.60
2022-12-03T07:10:37.024Z,14.10
2022-12-03T07:11:37.000Z,14.50
2022-12-03T07:12:37.061Z,15.50
2022-12-03T07:13:37.022Z,14.70
2022-12-03T07:14:36.980Z,14.70
2022-12-03T07:15:36.959Z,16.40
2022-12-03T07:16:37.013Z,14.50
2022-12-03T07:17:36.938Z,14.20
2022-12-03T07:18:36.932Z,13.90
2022-12-03T07:19:36.928Z,15.10
2022-12-03T07:20:36.917Z,14.40
2022-12-03T07:21:36.900Z,14.60
2022-12-03T07:22:36.894Z,15.70
2022-12-03T07:23:36.870Z,17.10
2022-12-03T07:24:36.887Z,15.20
2022-12-03T07:25:36.862Z,15.10
2022-12-03T07:26:36.866Z,17.30
2022-12-03T07:27:36.843Z,16.30
2022-12-03T07:28:36.840Z,16.10
2022-12-03T07:29:36.898Z,17.60
2022-12-03T07:30:36.810Z,14.70
2022-12-03T07:31:36.918Z,16.10
2022-12-03T07:32:36.792Z,14.60
2022-12-03T07:33:36.785Z,16.60
2022-12-03T07:34:36.810Z,16.60
2022-12-03T07:35:36.789Z,17.30
2022-12-03T07:36:36.753Z,18.40
2022-12-03T07:37:36.761Z,16.60
2022-12-03T07:38:36.727Z,14.60
2022-12-03T07:39:36.735Z,15.80
2022-12-03T07:40:36.698Z,15.00
2022-12-03T07:41:36.693Z,15.90
2022-12-03T07:42:36.691Z,14.90
2022-12-03T07:43:36.662Z,15.10
2022-12-03T07:44:36.663Z,16.00
2022-12-03T07:45:36.653Z,16.50
2022-12-03T07:46:36.697Z,17.20
2022-12-03T07:47:36.621Z,14.90
2022-12-03T07:48:36.615Z,15.20
2022-12-03T07:49:36.616Z,14.60
2022-12-03T07:50:36.607Z,15.50
2022-12-03T07:51:36.581Z,14.50
2022-12-03T07:52:36.562Z,17.90
2022-12-03T07:53:36.574Z,15.00
2022-12-03T07:54:36.562Z,17.30
2022-12-03T07:55:36.543Z,15.70
2022-12-03T07:56:36.523Z,16.20
2022-12-03T07:57:36.512Z,16.40
2022-12-03T07:58:36.505Z,16.40
2022-12-03T07:59:36.523Z,15.20
2022-12-03T08:00:36.518Z,15.60
2022-12-03T08:01:36.680Z,16.40
2022-12-03T08:02:36.556Z,15.70
2022-12-03T08:03:36.474Z,15.10
2022-12-03T08:04:36.468Z,19.00
2022-12-03T08:05:36.446Z,17.20
2022-12-03T08:06:36.412Z,16.40
2022-12-03T08:07:36.446Z,15.70
2022-12-03T08:08:36.395Z,16.80
2022-12-03T08:09:36.405Z,16.40
2022-12-03T08:10:36.405Z,15.50
2022-12-03T08:11:36.366Z,16.30
2022-12-03T08:12:36.354Z,15.20
2022-12-03T08:13:36.344Z,15.70
2022-12-03T08:14:36.343Z,15.20
2022-12-03T08:15:39.484Z,15.50
2022-12-03T08:16:36.383Z,16.70
2022-12-03T08:17:36.304Z,15.10
2022-12-03T08:18:36.285Z,15.70
2022-12-03T08:19:36.295Z,15.40
2022-12-03T08:20:36.276Z,16.80
2022-12-03T08:21:36.346Z,15.70
2022-12-03T08:22:36.256Z,17.30
2022-12-03T08:23:36.244Z,17.10
2022-12-03T08:24:36.232Z,15.50
2022-12-03T08:25:36.246Z,15.80
2022-12-03T08:26:36.209Z,15.10
2022-12-03T08:27:36.195Z,15.90
2022-12-03T08:28:36.198Z,15.30
2022-12-03T08:29:36.187Z,15.60
2022-12-03T08:30:36.163Z,16.80
2022-12-03T08:31:36.208Z,16.40
2022-12-03T08:32:36.145Z,15.40
2022-12-03T08:33:36.167Z,16.90
2022-12-03T08:34:36.165Z,15.20
2022-12-03T08:35:36.135Z,16.40
2022-12-03T08:36:36.118Z,14.80
2022-12-03T08:37:36.105Z,18.40
2022-12-03T08:38:36.085Z,16.70
2022-12-03T08:39:36.076Z,14.80
2022-12-03T08:40:36.090Z,17.30
2022-12-03T08:41:36.056Z,18.10
2022-12-03T08:42:36.026Z,16.40
2022-12-03T08:43:36.036Z,17.60
2022-12-03T08:44:36.017Z,16.90
2022-12-03T08:45:36.075Z,15.40
2022-12-03T08:46:36.029Z,15.00
2022-12-03T08:47:36.009Z,15.10
2022-12-03T08:48:35.966Z,16.60
2022-12-03T08:49:35.998Z,14.90
2022-12-03T08:50:36.070Z,15.20
2022-12-03T08:51:35.936Z,14.70
2022-12-03T08:52:35.928Z,15.20
2022-12-03T08:53:35.927Z,15.00
2022-12-03T08:54:35.901Z,15.70
2022-12-03T08:55:35.948Z,15.90
2022-12-03T08:56:35.894Z,17.40
2022-12-03T08:57:35.878Z,14.50
2022-12-03T08:58:35.868Z,15.00
2022-12-03T08:59:35.869Z,14.80
2022-12-03T09:00:35.857Z,15.10
2022-12-03T09:01:35.955Z,14.00
2022-12-03T09:02:35.825Z,17.80
2022-12-03T09:03:35.818Z,16.90
2022-12-03T09:04:35.888Z,15.40
2022-12-03T09:05:35.834Z,21.00
2022-12-03T09:06:35.788Z,18.20
2022-12-03T09:07:35.800Z,15.40
2022-12-03T09:08:35.757Z,17.20
2022-12-03T09:09:35.759Z,15.60
2022-12-03T09:10:35.762Z,14.90
2022-12-03T09:11:35.737Z,14.90
2022-12-03T09:12:35.718Z,14.40
2022-12-03T09:13:35.708Z,16.90
2022-12-03T09:14:35.718Z,15.70
2022-12-03T09:15:35.700Z,16.00
2022-12-03T09:16:35.751Z,15.80
2022-12-03T09:17:35.668Z,16.80
2022-12-03T09:18:35.658Z,17.70
2022-12-03T09:19:35.648Z,16.60
2022-12-03T09:20:35.648Z,16.60
2022-12-03T09:21:35.621Z,16.00
2022-12-03T09:22:35.833Z,17.50
2022-12-03T09:23:35.598Z,18.20
2022-12-03T09:24:35.590Z,17.20
2022-12-03T09:25:35.597Z,17.00
2022-12-03T09:26:35.569Z,18.30
2022-12-03T09:27:35.550Z,16.70
2022-12-03T09:28:35.559Z,16.80
2022-12-03T09:29:35.541Z,16.50
2022-12-03T09:30:35.556Z,17.30
2022-12-03T09:31:35.643Z,17.10
2022-12-03T09:32:35.526Z,16.20
2022-12-03T09:33:35.490Z,17.90
2022-12-03T09:34:35.480Z,17.40
2022-12-03T09:35:35.499Z,16.30
2022-12-03T09:36:35.474Z,17.20
2022-12-03T09:37:35.465Z,16.20
2022-12-03T09:38:35.451Z,16.00
2022-12-03T09:39:35.449Z,16.60
2022-12-03T09:40:35.440Z,16.10
2022-12-03T09:41:35.415Z,16.50
2022-12-03T09:42:35.401Z,16.30
2022-12-03T09:44:02.888Z,16.60
2022-12-03T09:44:36.382Z,15.30
2022-12-03T09:45:35.445Z,16.20
2022-12-03T09:46:35.437Z,15.10
2022-12-03T09:47:35.349Z,16.40
2022-12-03T09:48:35.340Z,15.60
2022-12-03T09:49:35.323Z,15.30
2022-12-03T09:50:35.341Z,16.30
2022-12-03T09:51:35.329Z,16.20
2022-12-03T09:52:35.310Z,17.60
2022-12-03T09:53:40.846Z,16.40
2022-12-03T09:54:36.271Z,15.00
2022-12-03T09:55:35.273Z,17.10
2022-12-03T09:56:35.252Z,16.10
2022-12-03T09:57:35.254Z,16.00
2022-12-03T09:58:35.235Z,16.50
2022-12-03T09:59:35.219Z,17.10
2022-12-03T10:00:35.237Z,16.20
2022-12-03T10:01:35.257Z,16.00
2022-12-03T10:02:35.192Z,17.80
2022-12-03T10:03:35.173Z,16.70
2022-12-03T10:04:35.243Z,16.20
2022-12-03T10:05:35.191Z,16.10
2022-12-03T10:06:35.143Z,27.30
2022-12-03T10:07:35.176Z,21.50
2022-12-03T10:08:35.122Z,20.40
2022-12-03T10:09:35.109Z,52.20
2022-12-03T10:10:35.123Z,34.10
2022-12-03T10:11:35.107Z,22.40
2022-12-03T10:12:35.085Z,17.70
2022-12-03T10:13:35.075Z,18.50
2022-12-03T10:14:35.174Z,28.50
2022-12-03T10:15:35.077Z,28.30
2022-12-03T10:16:35.086Z,31.90
2022-12-03T10:17:35.043Z,25.00
2022-12-03T10:18:41.201Z,22.00
2022-12-03T10:19:36.074Z,20.00
2022-12-03T10:20:35.025Z,18.40
2022-12-03T10:21:35.042Z,16.90
2022-12-03T10:22:35.017Z,17.80
2022-12-03T10:23:34.982Z,15.30
2022-12-03T10:24:34.965Z,18.10
2022-12-03T10:25:34.965Z,19.10
2022-12-03T10:26:34.937Z,15.30
2022-12-03T10:27:34.926Z,16.10
2022-12-03T10:28:34.913Z,17.30
2022-12-03T10:29:35.101Z,17.80
2022-12-03T10:30:35.061Z,17.70
2022-12-03T10:31:34.893Z,20.30
2022-12-03T10:32:34.874Z,17.50
2022-12-03T10:33:34.855Z,23.10
2022-12-03T10:34:34.874Z,27.50
2022-12-03T10:35:34.837Z,32.50
2022-12-03T10:36:34.851Z,22.70
2022-12-03T10:37:34.815Z,18.70
2022-12-03T10:38:34.829Z,19.10
2022-12-03T10:39:34.902Z,16.50
2022-12-03T10:40:34.795Z,16.80
2022-12-03T10:41:34.806Z,16.70
2022-12-03T10:42:34.784Z,17.30
2022-12-03T10:43:34.755Z,18.50
2022-12-03T10:44:34.746Z,17.60
2022-12-03T10:45:34.739Z,16.40
2022-12-03T10:46:34.872Z,17.90
2022-12-03T10:47:34.809Z,17.10
2022-12-03T10:48:34.696Z,18.70
2022-12-03T10:49:34.699Z,17.00
2022-12-03T10:50:34.727Z,17.20
2022-12-03T10:51:34.680Z,17.80
2022-12-03T10:52:34.665Z,18.90
2022-12-03T10:53:34.657Z,18.10
2022-12-03T10:54:34.646Z,17.40
2022-12-03T10:55:34.628Z,16.50
2022-12-03T10:56:34.647Z,17.90
2022-12-03T10:57:34.606Z,19.40
2022-12-03T10:58:34.609Z,17.80
2022-12-03T10:59:34.595Z,19.00
2022-12-03T11:00:34.578Z,18.50
2022-12-03T11:01:34.656Z,17.00
2022-12-03T11:02:34.558Z,22.10
2022-12-03T11:03:34.628Z,19.30
2022-12-03T11:04:34.537Z,19.50
2022-12-03T11:05:34.549Z,20.00
2022-12-03T11:06:34.528Z,22.30
2022-12-03T11:07:34.545Z,20.00
2022-12-03T11:08:34.510Z,21.30
2022-12-03T11:09:34.478Z,21.80
2022-12-03T11:10:34.471Z,20.80
2022-12-03T11:11:34.469Z,21.30
2022-12-03T11:12:34.446Z,19.80
2022-12-03T11:13:34.437Z,19.80
2022-12-03T11:14:34.435Z,20.70
2022-12-03T11:15:34.473Z,19.30
2022-12-03T11:16:34.461Z,21.00
2022-12-03T11:17:34.408Z,19.00
2022-12-03T11:18:34.380Z,19.60
2022-12-03T11:19:34.367Z,20.00
2022-12-03T11:20:34.360Z,23.10
2022-12-03T11:21:34.367Z,20.30
2022-12-03T11:22:34.357Z,22.70
2022-12-03T11:23:34.330Z,20.80
2022-12-03T11:24:34.319Z,20.60
2022-12-03T11:25:34.309Z,22.50
2022-12-03T11:26:34.329Z,19.70
2022-12-03T11:27:34.352Z,20.70
2022-12-03T11:28:34.270Z,20.30
2022-12-03T11:29:34.260Z,19.30
2022-12-03T11:30:34.259Z,20.60
2022-12-03T11:31:34.314Z,18.60
2022-12-03T11:32:34.300Z,19.40
2022-12-03T11:33:34.212Z,20.90
2022-12-03T11:34:34.227Z,20.30
2022-12-03T11:35:34.200Z,21.60
2022-12-03T11:36:54.405Z,22.00
2022-12-03T11:37:35.174Z,20.60
2022-12-03T11:38:34.171Z,20.90
2022-12-03T11:39:34.153Z,22.50
2022-12-03T11:40:39.422Z,20.80
2022-12-03T11:41:35.144Z,21.20
2022-12-03T11:42:34.131Z,21.50
2022-12-03T11:43:34.188Z,20.50
2022-12-03T11:44:34.102Z,20.10
2022-12-03T11:45:34.092Z,22.70
2022-12-03T11:46:34.144Z,21.70
2022-12-03T11:47:34.073Z,21.00
2022-12-03T11:48:34.071Z,20.80
2022-12-03T11:49:34.084Z,23.40
2022-12-03T11:50:39.741Z,23.00
2022-12-03T11:51:35.033Z,23.00
2022-12-03T11:52:34.023Z,22.70
2022-12-03T11:53:34.012Z,21.40
2022-12-03T11:54:33.992Z,20.40
2022-12-03T11:55:34.003Z,22.10
2022-12-03T11:56:33.993Z,21.80
2022-12-03T11:57:33.963Z,22.20
2022-12-03T11:58:33.951Z,22.50
2022-12-03T11:59:33.942Z,21.50
2022-12-03T12:00:33.952Z,25.00
2022-12-03T12:01:38.294Z,21.10
2022-12-03T12:02:34.989Z,21.70
2022-12-03T12:03:34.203Z,22.40
2022-12-03T12:04:34.004Z,22.00
2022-12-03T12:05:33.910Z,21.80
2022-12-03T12:06:33.866Z,23.40
2022-12-03T12:07:33.918Z,22.90
2022-12-03T12:08:33.844Z,20.70
2022-12-03T12:09:33.833Z,22.30
2022-12-03T12:10:33.825Z,24.30
2022-12-03T12:11:33.826Z,23.40
2022-12-03T12:12:33.862Z,23.10
2022-12-03T12:13:33.804Z,22.60
2022-12-03T12:14:33.796Z,23.90
2022-12-03T12:15:33.766Z,23.50
2022-12-03T12:16:33.832Z,23.50
2022-12-03T12:17:33.768Z,25.20
2022-12-03T12:18:33.733Z,24.00
2022-12-03T12:19:33.726Z,26.80
2022-12-03T12:20:33.776Z,23.90
2022-12-03T12:21:33.726Z,22.50
2022-12-03T12:22:33.755Z,24.10
2022-12-03T12:23:33.733Z,22.80
2022-12-03T12:24:33.745Z,24.90
2022-12-03T12:25:33.716Z,26.80
2022-12-03T12:26:33.696Z,24.80
2022-12-03T12:27:33.647Z,28.40
2022-12-03T12:28:33.643Z,25.20
2022-12-03T12:29:33.615Z,25.20
2022-12-03T12:30:33.635Z,24.90
2022-12-03T12:31:33.809Z,26.40
2022-12-03T12:32:33.666Z,23.50
2022-12-03T12:33:33.597Z,24.70
2022-12-03T12:34:33.574Z,23.50
2022-12-03T12:35:33.668Z,25.40
2022-12-03T12:36:33.539Z,22.30
2022-12-03T12:37:33.548Z,24.50
2022-12-03T12:38:33.527Z,26.50
2022-12-03T12:39:33.528Z,25.10
2022-12-03T12:40:33.516Z,24.10
2022-12-03T12:41:33.488Z,24.10
2022-12-03T12:42:33.516Z,24.80
2022-12-03T12:43:33.556Z,24.50
2022-12-03T12:44:33.461Z,24.90
2022-12-03T12:45:33.457Z,24.90
2022-12-03T12:46:47.768Z,26.90
2022-12-03T12:47:34.542Z,26.40
2022-12-03T12:48:33.429Z,24.70
2022-12-03T12:49:33.413Z,25.70
2022-12-03T12:50:33.398Z,25.40
2022-12-03T12:51:33.377Z,25.90
2022-12-03T12:52:33.388Z,25.70